Time;durP1;ratioP1;P1;durP2;ratioP2;P2;SDS_P1;SDS_P2;PMS_P1;PMS_P2;Temp;Humidity;BMP_temperature;BMP_pressure;BME280_temperature;BME280_humidity;BME280_pressure;Samples;Min_cycle;Max_cycle;Signal;HPM_P1;HPM_P2
2021/10/26 00:01:23;;;;;;;;;17.50;16.25;;;;;;;;5062688;28;11097;-84
2021/10/26 00:03:51;;;;;;;;;16.25;15.75;;;;;;;;5066115;28;10913;-85
2021/10/26 00:06:19;;;;;;;;;18.50;18.50;;;;;;;;5064435;28;11086;-79
2021/10/26 00:08:46;;;;;;;;;19.50;17.50;;;;;;;;5065023;28;10981;-83
2021/10/26 00:11:13;;;;;;;;;20.75;17.75;;;;;;;;5065580;28;11031;-85
2021/10/26 00:13:41;;;;;;;;;18.00;17.50;;;;;;;;5058935;28;10992;-82
2021/10/26 00:16:09;;;;;;;;;15.00;15.00;;;;;;;;5061799;28;11031;-77
2021/10/26 00:18:36;;;;;;;;;16.00;16.00;;;;;;;;5064345;28;11076;-81
2021/10/26 00:21:06;;;;;;;;;23.25;19.50;;;;;;;;5065163;28;11037;-84
2021/10/26 00:23:33;;;;;;;;;11.50;11.50;;;;;;;;5069388;28;11034;-81
2021/10/26 00:26:00;;;;;;;;;20.50;17.00;;;;;;;;5072244;28;11149;-84
2021/10/26 00:28:28;;;;;;;;;20.50;13.00;;;;;;;;5070600;28;11145;-82
2021/10/26 00:30:55;;;;;;;;;20.50;18.25;;;;;;;;5063475;28;11225;-81
2021/10/26 00:33:23;;;;;;;;;17.25;13.50;;;;;;;;5068703;28;11214;-83
2021/10/26 00:35:50;;;;;;;;;17.50;12.00;;;;;;;;5067363;28;11161;-83
2021/10/26 00:38:19;;;;;;;;;15.25;12.75;;;;;;;;5068262;28;11308;-84
2021/10/26 00:40:47;;;;;;;;;14.00;14.00;;;;;;;;5067279;28;11273;-75
2021/10/26 00:43:15;;;;;;;;;13.00;13.00;;;;;;;;5069144;28;11081;-82
2021/10/26 00:45:42;;;;;;;;;15.25;15.25;;;;;;;;5074261;28;11195;-81
2021/10/26 00:48:10;;;;;;;;;9.00;9.00;;;;;;;;5061832;28;11313;-81
2021/10/26 00:50:38;;;;;;;;;13.50;12.00;;;;;;;;5060349;28;11241;-82
2021/10/26 00:53:05;;;;;;;;;14.00;11.00;;;;;;;;5061232;28;12086;-81
2021/10/26 00:55:34;;;;;;;;;12.50;10.75;;;;;;;;5064006;28;11182;-80
2021/10/26 00:58:02;;;;;;;;;10.50;10.50;;;;;;;;5065082;28;11175;-77
2021/10/26 01:00:29;;;;;;;;;10.00;10.00;;;;;;;;5063033;28;11403;-80
2021/10/26 01:02:57;;;;;;;;;10.75;10.00;;;;;;;;5063143;28;11157;-80
2021/10/26 01:05:26;;;;;;;;;13.25;10.00;;;;;;;;5062600;28;12037;-80
2021/10/26 01:07:53;;;;;;;;;9.75;6.25;;;;;;;;5065521;28;11087;-78
2021/10/26 01:10:21;;;;;;;;;14.75;14.00;;;;;;;;5062372;28;11125;-81
2021/10/26 01:12:50;;;;;;;;;8.25;5.00;;;;;;;;5062542;28;11287;-81
2021/10/26 01:15:17;;;;;;;;;9.00;9.00;;;;;;;;5063718;28;11454;-79
2021/10/26 01:17:45;;;;;;;;;6.50;6.25;;;;;;;;5063669;28;11362;-81
2021/10/26 01:20:14;;;;;;;;;10.75;9.00;;;;;;;;5062571;28;11447;-82
2021/10/26 01:22:41;;;;;;;;;7.00;7.00;;;;;;;;5060771;28;11480;-82
2021/10/26 01:25:10;;;;;;;;;13.00;10.50;;;;;;;;5061862;28;11499;-79
2021/10/26 01:27:41;;;;;;;;;11.50;10.00;;;;;;;;5062898;28;11463;-82
2021/10/26 01:30:10;;;;;;;;;10.75;9.50;;;;;;;;5062415;28;12733;-78
2021/10/26 01:32:38;;;;;;;;;9.00;9.00;;;;;;;;5058416;28;11480;-82
2021/10/26 01:35:06;;;;;;;;;6.25;6.25;;;;;;;;5062902;28;11589;-80
2021/10/26 01:37:35;;;;;;;;;7.50;7.50;;;;;;;;5061119;28;11452;-84
2021/10/26 01:40:03;;;;;;;;;9.25;9.00;;;;;;;;5061915;28;11446;-89
2021/10/26 01:42:30;;;;;;;;;10.75;10.75;;;;;;;;5064044;28;11580;-82
2021/10/26 01:44:58;;;;;;;;;11.25;10.50;;;;;;;;5059093;28;12375;-80
2021/10/26 01:47:26;;;;;;;;;11.75;11.75;;;;;;;;5063381;28;12285;-82
2021/10/26 01:49:53;;;;;;;;;9.50;9.50;;;;;;;;5061141;28;11513;-83
2021/10/26 01:52:21;;;;;;;;;14.00;12.25;;;;;;;;5062627;28;11483;-81
2021/10/26 01:54:50;;;;;;;;;10.00;10.00;;;;;;;;5062620;28;11260;-84
2021/10/26 01:57:19;;;;;;;;;11.25;10.00;;;;;;;;5062757;28;11204;-83
2021/10/26 01:59:47;;;;;;;;;16.50;14.50;;;;;;;;5063715;28;11086;-83
2021/10/26 02:02:14;;;;;;;;;18.25;10.75;;;;;;;;5060641;28;11158;-78
2021/10/26 02:04:41;;;;;;;;;11.25;10.50;;;;;;;;5062833;28;11214;-78
2021/10/26 02:07:09;;;;;;;;;11.00;9.00;;;;;;;;5063775;28;11861;-83
2021/10/26 02:09:36;;;;;;;;;7.75;7.75;;;;;;;;5063305;28;11126;-84
2021/10/26 02:12:06;;;;;;;;;9.75;8.00;;;;;;;;5063290;28;11016;-84
2021/10/26 02:14:34;;;;;;;;;13.25;9.50;;;;;;;;5062364;28;11000;-82
2021/10/26 02:17:02;;;;;;;;;11.00;11.00;;;;;;;;5064006;28;11024;-79
2021/10/26 02:19:30;;;;;;;;;10.25;10.25;;;;;;;;5062372;28;11020;-81
2021/10/26 02:21:58;;;;;;;;;12.00;9.00;;;;;;;;5061955;28;10963;-77
2021/10/26 02:24:25;;;;;;;;;9.75;9.75;;;;;;;;5059288;28;10923;-78
2021/10/26 02:26:53;;;;;;;;;9.50;7.75;;;;;;;;5063395;28;11840;-78
2021/10/26 02:29:22;;;;;;;;;10.25;8.00;;;;;;;;5063926;28;10941;-80
2021/10/26 02:31:49;;;;;;;;;13.25;8.00;;;;;;;;5060563;28;10892;-81
2021/10/26 02:34:17;;;;;;;;;8.00;8.00;;;;;;;;5063251;28;10825;-84
2021/10/26 02:36:44;;;;;;;;;10.00;7.25;;;;;;;;5061931;28;10749;-81
2021/10/26 02:39:12;;;;;;;;;12.50;12.50;;;;;;;;5062288;28;10843;-80
2021/10/26 02:41:39;;;;;;;;;14.25;11.00;;;;;;;;5061703;28;11119;-83
2021/10/26 02:44:07;;;;;;;;;10.00;8.75;;;;;;;;5063835;28;11052;-82
2021/10/26 02:46:36;;;;;;;;;15.25;11.75;;;;;;;;5063443;28;10825;-85
2021/10/26 02:49:04;;;;;;;;;15.50;13.25;;;;;;;;5062874;28;10707;-85
2021/10/26 02:51:32;;;;;;;;;13.50;12.00;;;;;;;;5060104;28;11041;-86
2021/10/26 02:54:00;;;;;;;;;8.00;6.00;;;;;;;;5062192;28;10974;-84
2021/10/26 02:56:28;;;;;;;;;8.00;8.00;;;;;;;;5063912;28;10782;-85
2021/10/26 02:58:55;;;;;;;;;12.25;11.00;;;;;;;;5061173;28;10812;-85
2021/10/26 03:01:22;;;;;;;;;10.75;6.25;;;;;;;;5062323;28;11359;-81
2021/10/26 03:03:52;;;;;;;;;11.75;11.75;;;;;;;;5058134;28;10840;-82
2021/10/26 03:06:20;;;;;;;;;12.00;11.00;;;;;;;;5061252;28;10649;-84
2021/10/26 03:08:47;;;;;;;;;13.00;13.00;;;;;;;;5062369;28;10548;-84
2021/10/26 03:11:15;;;;;;;;;12.50;11.50;;;;;;;;5059262;28;10853;-82
2021/10/26 03:13:42;;;;;;;;;8.75;8.50;;;;;;;;5057225;28;10577;-82
2021/10/26 03:16:10;;;;;;;;;10.75;10.75;;;;;;;;5060057;28;10576;-76
2021/10/26 03:18:37;;;;;;;;;19.75;18.00;;;;;;;;5062396;28;10598;-83
2021/10/26 03:21:06;;;;;;;;;11.75;11.75;;;;;;;;5065648;28;10575;-87
2021/10/26 03:23:33;;;;;;;;;15.50;15.50;;;;;;;;5066141;28;10465;-86
2021/10/26 03:26:00;;;;;;;;;16.50;12.75;;;;;;;;5066908;28;10349;-82
2021/10/26 03:28:28;;;;;;;;;18.00;14.00;;;;;;;;5059431;28;10423;-83
2021/10/26 03:30:57;;;;;;;;;15.25;12.50;;;;;;;;5066040;28;10219;-83
2021/10/26 03:33:24;;;;;;;;;17.00;17.00;;;;;;;;5063424;28;10338;-86
2021/10/26 03:35:53;;;;;;;;;15.00;14.00;;;;;;;;5066092;28;10453;-82
2021/10/26 03:38:22;;;;;;;;;11.00;11.00;;;;;;;;5065390;28;10285;-86
2021/10/26 03:40:49;;;;;;;;;12.00;12.00;;;;;;;;5066288;28;10200;-82
2021/10/26 03:43:16;;;;;;;;;18.25;12.50;;;;;;;;5061734;28;10368;-85
2021/10/26 03:45:44;;;;;;;;;13.25;13.25;;;;;;;;5064938;28;10261;-79
2021/10/26 03:48:11;;;;;;;;;13.25;13.25;;;;;;;;5064009;28;10270;-83
2021/10/26 03:50:38;;;;;;;;;14.25;12.25;;;;;;;;5060719;28;10368;-79
2021/10/26 03:53:06;;;;;;;;;15.00;15.00;;;;;;;;5063398;28;10304;-83
2021/10/26 03:55:34;;;;;;;;;14.50;12.25;;;;;;;;5064468;28;10298;-81
2021/10/26 03:58:02;;;;;;;;;17.75;16.50;;;;;;;;5065417;28;9963;-86
2021/10/26 04:00:29;;;;;;;;;9.75;9.75;;;;;;;;5064682;28;10135;-84
2021/10/26 04:02:56;;;;;;;;;15.00;14.00;;;;;;;;5065600;28;10031;-81
2021/10/26 04:05:35;;;;;;;;;14.50;12.75;;;;;;;;5063045;28;10171;-76
2021/10/26 04:08:17;;;;;;;;;16.00;13.00;;;;;;;;5061856;28;10130;-82
2021/10/26 04:10:48;;;;;;;;;13.00;13.00;;;;;;;;5063155;28;9941;-84
2021/10/26 04:13:15;;;;;;;;;15.00;13.25;;;;;;;;5064188;28;11017;-76
2021/10/26 04:15:43;;;;;;;;;13.50;13.50;;;;;;;;5071354;28;10106;-77
2021/10/26 04:18:10;;;;;;;;;12.75;11.25;;;;;;;;5055332;28;10046;-79
2021/10/26 04:20:37;;;;;;;;;14.00;13.50;;;;;;;;5062566;28;10140;-86
2021/10/26 04:23:05;;;;;;;;;14.75;12.00;;;;;;;;5059067;28;10052;-79
2021/10/26 04:25:33;;;;;;;;;21.50;19.25;;;;;;;;5064478;28;10249;-76
2021/10/26 04:28:02;;;;;;;;;11.75;11.75;;;;;;;;5065427;28;10114;-76
2021/10/26 04:30:31;;;;;;;;;14.25;12.25;;;;;;;;5058857;28;10051;-80
2021/10/26 04:33:00;;;;;;;;;16.75;16.25;;;;;;;;5065536;28;10258;-76
2021/10/26 04:35:27;;;;;;;;;21.00;13.00;;;;;;;;5055712;28;11105;-74
2021/10/26 04:37:57;;;;;;;;;18.00;13.75;;;;;;;;5056777;28;10388;-74
2021/10/26 04:40:24;;;;;;;;;14.75;14.50;;;;;;;;5063542;28;10362;-74
2021/10/26 04:42:51;;;;;;;;;16.50;12.25;;;;;;;;5062461;28;10355;-74
2021/10/26 04:45:22;;;;;;;;;16.75;16.75;;;;;;;;5056456;28;10411;-73
2021/10/26 04:47:49;;;;;;;;;19.75;17.00;;;;;;;;5063502;28;10353;-75
2021/10/26 04:50:17;;;;;;;;;12.00;11.75;;;;;;;;5054138;28;10644;-73
2021/10/26 04:52:44;;;;;;;;;17.75;16.00;;;;;;;;5061694;28;10549;-74
2021/10/26 04:55:12;;;;;;;;;17.00;13.00;;;;;;;;5063908;28;10271;-74
2021/10/26 04:57:40;;;;;;;;;19.00;14.75;;;;;;;;5064855;28;10352;-74
2021/10/26 05:00:09;;;;;;;;;12.00;10.75;;;;;;;;5054828;28;10224;-74
2021/10/26 05:02:39;;;;;;;;;15.50;13.50;;;;;;;;5059471;28;10369;-74
2021/10/26 05:05:07;;;;;;;;;12.25;12.25;;;;;;;;5062319;28;10499;-74
2021/10/26 05:07:35;;;;;;;;;17.00;17.00;;;;;;;;5064879;28;10422;-75
2021/10/26 05:10:02;;;;;;;;;17.00;17.00;;;;;;;;5064662;28;10472;-74
2021/10/26 05:12:29;;;;;;;;;18.25;14.00;;;;;;;;5062878;28;10382;-75
2021/10/26 05:14:57;;;;;;;;;14.75;12.25;;;;;;;;5059852;28;10363;-74
2021/10/26 05:17:26;;;;;;;;;11.75;11.50;;;;;;;;5060355;28;10309;-77
2021/10/26 05:19:56;;;;;;;;;23.75;15.50;;;;;;;;5060157;28;10464;-75
2021/10/26 05:22:25;;;;;;;;;13.25;13.25;;;;;;;;5060471;28;10437;-74
2021/10/26 05:24:53;;;;;;;;;13.50;8.50;;;;;;;;5062679;28;10356;-72
2021/10/26 05:27:20;;;;;;;;;7.75;5.75;;;;;;;;5064749;28;11491;-73
2021/10/26 05:29:48;;;;;;;;;10.25;10.25;;;;;;;;5067455;28;11129;-79
2021/10/26 05:32:16;;;;;;;;;16.25;13.00;;;;;;;;5068857;28;10152;-76
2021/10/26 05:34:43;;;;;;;;;12.50;9.25;;;;;;;;5061683;28;10530;-81
2021/10/26 05:37:12;;;;;;;;;10.50;10.50;;;;;;;;5060620;28;10111;-77
2021/10/26 05:39:41;;;;;;;;;17.00;13.75;;;;;;;;5059536;28;10269;-78
2021/10/26 05:42:08;;;;;;;;;16.50;12.75;;;;;;;;5060279;28;10450;-77
2021/10/26 05:44:36;;;;;;;;;16.50;16.50;;;;;;;;5062273;28;11207;-76
2021/10/26 05:47:03;;;;;;;;;18.00;14.25;;;;;;;;5058042;28;10385;-77
2021/10/26 05:49:31;;;;;;;;;13.00;13.00;;;;;;;;5063310;28;10515;-73
2021/10/26 05:51:58;;;;;;;;;11.75;11.50;;;;;;;;5062334;28;10344;-72
2021/10/26 05:54:27;;;;;;;;;15.25;11.25;;;;;;;;5059682;28;10470;-72
2021/10/26 05:56:54;;;;;;;;;18.25;13.00;;;;;;;;5059962;28;10413;-73
2021/10/26 05:59:22;;;;;;;;;19.25;17.00;;;;;;;;5060708;28;10345;-72
2021/10/26 06:01:50;;;;;;;;;15.75;15.75;;;;;;;;5060341;28;10520;-75
2021/10/26 06:04:18;;;;;;;;;21.75;19.50;;;;;;;;5061325;28;10637;-72
2021/10/26 06:06:46;;;;;;;;;18.25;18.25;;;;;;;;5057283;28;10683;-74
2021/10/26 06:09:15;;;;;;;;;17.00;13.00;;;;;;;;5062086;28;10561;-74
2021/10/26 06:11:47;;;;;;;;;17.25;15.00;;;;;;;;5066212;28;10430;-77
2021/10/26 06:14:14;;;;;;;;;18.00;13.50;;;;;;;;5061239;28;11151;-74
2021/10/26 06:16:42;;;;;;;;;17.50;12.00;;;;;;;;5061264;28;10416;-74
2021/10/26 06:19:09;;;;;;;;;16.25;15.25;;;;;;;;5058484;28;10542;-73
2021/10/26 06:21:37;;;;;;;;;14.00;11.00;;;;;;;;5061853;28;10553;-73
2021/10/26 06:24:05;;;;;;;;;14.25;14.25;;;;;;;;5059285;28;10483;-74
2021/10/26 06:26:33;;;;;;;;;24.25;17.50;;;;;;;;5056217;28;11565;-75
2021/10/26 06:29:02;;;;;;;;;15.00;13.25;;;;;;;;5059085;28;10630;-75
2021/10/26 06:31:30;;;;;;;;;15.75;13.00;;;;;;;;5055847;28;11452;-73
2021/10/26 06:33:57;;;;;;;;;9.25;8.75;;;;;;;;5039613;28;10776;-77
2021/10/26 06:36:25;;;;;;;;;16.50;16.50;;;;;;;;5056965;28;10734;-78
2021/10/26 06:38:53;;;;;;;;;12.00;12.00;;;;;;;;5057320;28;10590;-75
2021/10/26 06:41:20;;;;;;;;;17.00;15.00;;;;;;;;5059458;28;10563;-76
2021/10/26 06:43:47;;;;;;;;;11.00;8.25;;;;;;;;5058726;28;10819;-76
2021/10/26 06:46:17;;;;;;;;;18.25;15.00;;;;;;;;5061172;28;10808;-76
2021/10/26 06:48:44;;;;;;;;;15.00;14.25;;;;;;;;5060594;28;10851;-76
2021/10/26 06:51:12;;;;;;;;;17.00;17.00;;;;;;;;5062120;28;10836;-76
2021/10/26 06:53:40;;;;;;;;;16.00;12.25;;;;;;;;5059884;28;10751;-76
2021/10/26 06:56:12;;;;;;;;;12.75;12.75;;;;;;;;5066792;28;10660;-76
2021/10/26 06:58:39;;;;;;;;;16.50;15.00;;;;;;;;5063376;28;11677;-77
2021/10/26 07:01:08;;;;;;;;;16.50;14.75;;;;;;;;5065021;28;10700;-76
2021/10/26 07:03:37;;;;;;;;;17.00;17.00;;;;;;;;5064777;28;10728;-78
2021/10/26 07:06:05;;;;;;;;;13.25;11.75;;;;;;;;5061324;28;11470;-76
2021/10/26 07:08:33;;;;;;;;;29.00;27.25;;;;;;;;5062370;28;10618;-77
2021/10/26 07:11:00;;;;;;;;;31.75;27.75;;;;;;;;5062727;28;11318;-76
2021/10/26 07:13:28;;;;;;;;;36.25;28.75;;;;;;;;5063353;28;10998;-75
2021/10/26 07:15:55;;;;;;;;;11.50;11.00;;;;;;;;5062566;28;10994;-75
2021/10/26 07:18:22;;;;;;;;;10.50;10.50;;;;;;;;5071234;28;10564;-75
2021/10/26 07:20:51;;;;;;;;;8.75;8.75;;;;;;;;5062763;28;10579;-75
2021/10/26 07:23:19;;;;;;;;;10.50;10.00;;;;;;;;5050783;28;10659;-81
2021/10/26 07:25:46;;;;;;;;;7.75;7.75;;;;;;;;5061207;28;10537;-75
2021/10/26 07:28:14;;;;;;;;;11.25;9.75;;;;;;;;5066058;28;10543;-76
2021/10/26 07:30:44;;;;;;;;;8.25;8.25;;;;;;;;5071396;28;10433;-75
2021/10/26 07:33:18;;;;;;;;;12.00;10.00;;;;;;;;5063333;28;10431;-77
2021/10/26 07:35:47;;;;;;;;;47.75;37.00;;;;;;;;5062947;28;10649;-77
2021/10/26 07:38:26;;;;;;;;;19.00;13.75;;;;;;;;5056562;28;11549;-77
2021/10/26 07:40:53;;;;;;;;;13.75;12.25;;;;;;;;5060409;28;11266;-77
2021/10/26 07:43:21;;;;;;;;;20.75;18.25;;;;;;;;5062063;28;10425;-77
2021/10/26 07:45:48;;;;;;;;;19.00;17.25;;;;;;;;5060303;28;10609;-76
2021/10/26 07:48:16;;;;;;;;;17.00;16.50;;;;;;;;5061184;28;10781;-76
2021/10/26 07:50:45;;;;;;;;;14.25;13.00;;;;;;;;5063622;28;10652;-77
2021/10/26 07:53:12;;;;;;;;;15.50;15.50;;;;;;;;5065954;28;10592;-76
2021/10/26 07:55:41;;;;;;;;;18.00;18.00;;;;;;;;5066330;28;10608;-76
2021/10/26 07:58:09;;;;;;;;;16.00;13.25;;;;;;;;5065079;28;11382;-76
2021/10/26 08:00:36;;;;;;;;;13.50;13.50;;;;;;;;5065946;28;10555;-76
2021/10/26 08:03:04;;;;;;;;;21.00;15.25;;;;;;;;5062905;28;10705;-76
2021/10/26 08:05:32;;;;;;;;;17.00;17.00;;;;;;;;5064734;28;12189;-76
2021/10/26 08:07:59;;;;;;;;;17.50;16.00;;;;;;;;5065043;28;10807;-76
2021/10/26 08:10:28;;;;;;;;;16.50;16.25;;;;;;;;5064416;28;10732;-78
2021/10/26 08:12:57;;;;;;;;;20.50;16.50;;;;;;;;5062849;28;10918;-76
2021/10/26 08:15:25;;;;;;;;;19.25;17.25;;;;;;;;5064023;28;10680;-77
2021/10/26 08:17:52;;;;;;;;;16.50;14.25;;;;;;;;5064536;28;10868;-76
2021/10/26 08:20:19;;;;;;;;;16.75;12.75;;;;;;;;5062530;28;10749;-77
2021/10/26 08:22:47;;;;;;;;;20.50;18.50;;;;;;;;5064703;28;10856;-77
2021/10/26 08:25:19;;;;;;;;;23.75;22.00;;;;;;;;5064301;28;10942;-75
2021/10/26 08:27:47;;;;;;;;;16.75;14.25;;;;;;;;5064584;28;10602;-77
2021/10/26 08:30:26;;;;;;;;;12.50;12.50;;;;;;;;5064311;28;10726;-76
2021/10/26 08:32:57;;;;;;;;;16.00;16.00;;;;;;;;5063928;28;10837;-75
2021/10/26 08:35:26;;;;;;;;;18.25;14.75;;;;;;;;5065422;28;10905;-75
2021/10/26 08:37:57;;;;;;;;;19.00;17.00;;;;;;;;5063201;28;10719;-77
2021/10/26 08:40:25;;;;;;;;;18.00;17.50;;;;;;;;5065417;28;10947;-77
2021/10/26 08:42:54;;;;;;;;;15.75;15.25;;;;;;;;5063860;28;10577;-77
2021/10/26 08:45:24;;;;;;;;;16.00;16.00;;;;;;;;5064838;28;10685;-76
2021/10/26 08:47:52;;;;;;;;;28.50;20.00;;;;;;;;5064769;28;10487;-78
2021/10/26 08:50:20;;;;;;;;;24.00;22.25;;;;;;;;5063691;28;10584;-77
2021/10/26 08:52:49;;;;;;;;;21.75;17.75;;;;;;;;5063747;28;10789;-76
2021/10/26 08:55:17;;;;;;;;;16.75;16.75;;;;;;;;5063947;28;10647;-76
2021/10/26 08:57:45;;;;;;;;;20.00;16.00;;;;;;;;5062224;28;10480;-77
2021/10/26 09:00:16;;;;;;;;;17.75;17.75;;;;;;;;5058407;28;10890;-76
2021/10/26 09:02:46;;;;;;;;;22.50;21.75;;;;;;;;5061238;28;10731;-75
2021/10/26 09:05:16;;;;;;;;;17.75;17.75;;;;;;;;5064698;28;10568;-77
2021/10/26 09:07:48;;;;;;;;;20.00;17.25;;;;;;;;5060547;28;10500;-77
2021/10/26 09:10:16;;;;;;;;;17.75;17.75;;;;;;;;5064444;28;10595;-76
2021/10/26 09:18:26;;;;;;;;;15.00;15.00;;;;;;;;5062063;28;10086;-76
2021/10/26 09:20:54;;;;;;;;;20.00;20.00;;;;;;;;5061675;28;11638;-77
2021/10/26 09:23:26;;;;;;;;;14.75;14.75;;;;;;;;5064363;28;10629;-76
2021/10/26 09:25:59;;;;;;;;;19.25;19.25;;;;;;;;5063266;28;10600;-73
2021/10/26 09:28:28;;;;;;;;;19.25;17.50;;;;;;;;5064698;28;10455;-76
2021/10/26 09:31:04;;;;;;;;;16.75;16.75;;;;;;;;5045837;28;10440;-75
2021/10/26 09:33:35;;;;;;;;;20.00;16.00;;;;;;;;5061596;28;10437;-74
2021/10/26 09:36:24;;;;;;;;;19.25;15.75;;;;;;;;5064415;28;10401;-75
2021/10/26 09:39:10;;;;;;;;;22.00;19.50;;;;;;;;5058964;28;10507;-76
2021/10/26 09:41:40;;;;;;;;;10.00;10.00;;;;;;;;5058837;28;11281;-76
2021/10/26 09:44:11;;;;;;;;;18.75;18.25;;;;;;;;5063123;28;10349;-74
2021/10/26 09:46:40;;;;;;;;;18.75;15.25;;;;;;;;5062629;28;10224;-76
2021/10/26 09:49:22;;;;;;;;;22.25;19.75;;;;;;;;5064185;28;10237;-76
2021/10/26 09:51:51;;;;;;;;;18.75;15.25;;;;;;;;5062395;28;10368;-77
2021/10/26 09:54:20;;;;;;;;;13.25;13.25;;;;;;;;5063308;28;11233;-76
2021/10/26 09:57:03;;;;;;;;;17.75;16.50;;;;;;;;5062559;28;10192;-76
2021/10/26 09:59:30;;;;;;;;;22.00;22.00;;;;;;;;5058868;28;9989;-77
2021/10/26 10:01:58;;;;;;;;;21.00;21.00;;;;;;;;5060254;28;10049;-78
2021/10/26 10:04:33;;;;;;;;;20.50;18.75;;;;;;;;5062123;28;11111;-78
2021/10/26 10:07:01;;;;;;;;;21.25;21.25;;;;;;;;5059678;28;10150;-77
2021/10/26 10:09:29;;;;;;;;;19.25;19.25;;;;;;;;5062551;28;10156;-78
2021/10/26 10:11:59;;;;;;;;;19.75;17.50;;;;;;;;5062996;28;10072;-79
2021/10/26 10:14:27;;;;;;;;;21.25;21.25;;;;;;;;5062987;28;9877;-78
2021/10/26 10:16:55;;;;;;;;;27.00;23.50;;;;;;;;5061620;28;10127;-77
2021/10/26 10:19:23;;;;;;;;;19.00;17.75;;;;;;;;5062727;28;10122;-78
2021/10/26 10:21:52;;;;;;;;;18.00;18.00;;;;;;;;5060556;28;10149;-76
2021/10/26 10:24:20;;;;;;;;;18.75;18.00;;;;;;;;5063484;28;10037;-77
2021/10/26 10:26:51;;;;;;;;;23.50;20.75;;;;;;;;5061571;28;9881;-77
2021/10/26 10:29:21;;;;;;;;;22.50;20.75;;;;;;;;5062883;28;9871;-76
2021/10/26 10:31:50;;;;;;;;;15.25;15.00;;;;;;;;5062463;28;9770;-76
2021/10/26 10:34:22;;;;;;;;;17.75;17.75;;;;;;;;5062630;28;10781;-75
2021/10/26 10:36:53;;;;;;;;;17.25;13.50;;;;;;;;5063465;28;9857;-77
2021/10/26 10:39:26;;;;;;;;;25.50;19.25;;;;;;;;5061743;28;9953;-77
2021/10/26 10:42:12;;;;;;;;;18.00;18.00;;;;;;;;5062341;28;10726;-75
2021/10/26 10:44:41;;;;;;;;;18.75;14.75;;;;;;;;5062378;28;9805;-77
2021/10/26 10:47:12;;;;;;;;;15.00;15.00;;;;;;;;5061216;28;9800;-77
2021/10/26 10:49:47;;;;;;;;;21.50;20.00;;;;;;;;5061364;28;9717;-76
2021/10/26 10:52:21;;;;;;;;;18.00;16.00;;;;;;;;5059391;28;10036;-77
2021/10/26 10:54:51;;;;;;;;;18.00;18.00;;;;;;;;5060823;28;10724;-77
2021/10/26 10:57:24;;;;;;;;;22.00;20.25;;;;;;;;5061175;28;10629;-78
2021/10/26 10:59:53;;;;;;;;;15.75;14.75;;;;;;;;5061060;28;9917;-78
2021/10/26 11:02:25;;;;;;;;;18.25;18.25;;;;;;;;5062148;28;9654;-78
2021/10/26 11:04:54;;;;;;;;;15.00;15.00;;;;;;;;5062387;28;10043;-77
2021/10/26 11:07:54;;;;;;;;;17.25;17.25;;;;;;;;5062568;28;10407;-78
2021/10/26 11:10:22;;;;;;;;;15.00;15.00;;;;;;;;5061502;28;9637;-81
2021/10/26 11:12:52;;;;;;;;;15.50;14.50;;;;;;;;5062687;28;9585;-79
2021/10/26 11:15:25;;;;;;;;;17.25;15.50;;;;;;;;5061026;28;9538;-78
2021/10/26 11:17:56;;;;;;;;;10.50;10.00;;;;;;;;5061936;28;9625;-76
2021/10/26 11:20:43;;;;;;;;;14.50;14.25;;;;;;;;5060434;28;9442;-76
2021/10/26 11:23:16;;;;;;;;;15.67;13.67;;;;;;;;5061461;28;10368;-77
2021/10/26 11:25:45;;;;;;;;;16.00;10.00;;;;;;;;5062547;28;9393;-76
2021/10/26 11:28:48;;;;;;;;;16.67;15.33;;;;;;;;5061793;28;9390;-76
2021/10/26 11:31:23;;;;;;;;;14.67;13.67;;;;;;;;5058677;28;10053;-75
2021/10/26 11:33:59;;;;;;;;;9.00;9.00;;;;;;;;5061899;28;9324;-76
2021/10/26 11:36:32;;;;;;;;;16.33;15.67;;;;;;;;5060549;28;9201;-76
2021/10/26 11:39:04;;;;;;;;;18.67;17.33;;;;;;;;5061275;28;9305;-76
2021/10/26 11:41:34;;;;;;;;;16.67;15.00;;;;;;;;5064966;28;9337;-77
2021/10/26 11:44:03;;;;;;;;;15.33;15.00;;;;;;;;5061832;28;9274;-77
2021/10/26 11:46:32;;;;;;;;;22.33;17.33;;;;;;;;5062039;28;9208;-76
2021/10/26 11:49:04;;;;;;;;;16.67;16.67;;;;;;;;5062295;28;9182;-76
2021/10/26 11:51:34;;;;;;;;;17.33;15.00;;;;;;;;5063963;28;9306;-76
2021/10/26 11:54:07;;;;;;;;;23.67;20.67;;;;;;;;5065197;28;9022;-76
2021/10/26 11:56:37;;;;;;;;;26.00;17.33;;;;;;;;5066242;28;9266;-76
2021/10/26 11:59:09;;;;;;;;;20.00;18.00;;;;;;;;5067916;28;9105;-76
2021/10/26 12:01:47;;;;;;;;;17.00;17.00;;;;;;;;5062760;28;9149;-76
2021/10/26 12:04:20;;;;;;;;;26.33;25.00;;;;;;;;5064645;28;9633;-76
2021/10/26 12:06:48;;;;;;;;;17.67;17.67;;;;;;;;5060115;28;9314;-76
2021/10/26 12:09:17;;;;;;;;;21.67;19.33;;;;;;;;5065587;28;9034;-76
2021/10/26 12:11:47;;;;;;;;;21.00;18.00;;;;;;;;5064753;28;9030;-77
2021/10/26 12:14:17;;;;;;;;;21.67;19.00;;;;;;;;5065187;28;9215;-76
2021/10/26 12:17:15;;;;;;;;;22.67;22.67;;;;;;;;5063486;28;9004;-77
2021/10/26 12:19:46;;;;;;;;;19.00;19.00;;;;;;;;5062684;28;9023;-78
2021/10/26 12:22:18;;;;;;;;;20.67;20.67;;;;;;;;5062109;28;9092;-76
2021/10/26 12:24:49;;;;;;;;;20.00;18.00;;;;;;;;5064143;28;9095;-77
2021/10/26 12:27:25;;;;;;;;;20.50;18.75;;;;;;;;5064207;28;9098;-76
2021/10/26 12:29:53;;;;;;;;;10.00;10.00;;;;;;;;5064483;28;8869;-76
2021/10/26 12:32:22;;;;;;;;;18.50;18.50;;;;;;;;5061450;28;9080;-76
2021/10/26 12:34:50;;;;;;;;;18.00;15.75;;;;;;;;5062271;28;8854;-76
2021/10/26 12:37:23;;;;;;;;;22.00;19.25;;;;;;;;5063451;28;8858;-75
2021/10/26 12:39:55;;;;;;;;;18.00;18.00;;;;;;;;5061951;28;8884;-78
2021/10/26 12:42:36;;;;;;;;;17.50;17.25;;;;;;;;5063374;28;10034;-78
2021/10/26 12:45:05;;;;;;;;;21.25;20.00;;;;;;;;5062920;28;9678;-78
2021/10/26 12:47:52;;;;;;;;;14.50;14.50;;;;;;;;5063996;28;8932;-79
2021/10/26 12:50:37;;;;;;;;;13.25;12.50;;;;;;;;5062709;28;8858;-79
2021/10/26 12:53:35;;;;;;;;;18.50;16.25;;;;;;;;5062233;28;9042;-79
2021/10/26 12:56:24;;;;;;;;;19.50;18.75;;;;;;;;5002661;28;8882;-78
2021/10/26 12:58:52;;;;;;;;;17.25;17.25;;;;;;;;5059359;28;8895;-77
2021/10/26 13:01:30;;;;;;;;;12.00;10.75;;;;;;;;5064650;28;9683;-78
2021/10/26 13:03:59;;;;;;;;;13.50;13.50;;;;;;;;5064976;28;8866;-77
2021/10/26 13:06:31;;;;;;;;;17.50;17.00;;;;;;;;5063307;28;9620;-77
2021/10/26 13:08:58;;;;;;;;;17.50;16.00;;;;;;;;5064778;28;8866;-77
2021/10/26 13:11:29;;;;;;;;;15.50;15.50;;;;;;;;5060282;28;8862;-78
2021/10/26 13:14:08;;;;;;;;;13.25;13.25;;;;;;;;5065132;28;8870;-77
2021/10/26 13:16:39;;;;;;;;;16.25;12.75;;;;;;;;5061885;28;8855;-77
2021/10/26 13:19:14;;;;;;;;;18.25;11.25;;;;;;;;5064276;28;8886;-77
2021/10/26 13:21:44;;;;;;;;;16.25;12.75;;;;;;;;5062455;28;8854;-77
2021/10/26 13:24:12;;;;;;;;;13.25;12.50;;;;;;;;5062897;28;8882;-77
2021/10/26 13:26:41;;;;;;;;;12.50;11.00;;;;;;;;5062964;28;8886;-78
2021/10/26 13:29:09;;;;;;;;;10.00;6.25;;;;;;;;5062762;28;8878;-77
2021/10/26 13:31:38;;;;;;;;;6.50;6.00;;;;;;;;5063968;28;8841;-78
2021/10/26 13:34:07;;;;;;;;;6.75;4.75;;;;;;;;5060760;28;8866;-79
2021/10/26 13:36:35;;;;;;;;;6.00;5.50;;;;;;;;5062788;28;8855;-78
2021/10/26 13:39:05;;;;;;;;;6.00;6.00;;;;;;;;5059875;28;9657;-77
2021/10/26 13:41:36;;;;;;;;;4.75;4.00;;;;;;;;5061939;28;8874;-77
2021/10/26 13:44:05;;;;;;;;;5.00;5.00;;;;;;;;5060374;28;8997;-77
2021/10/26 13:46:33;;;;;;;;;6.75;5.00;;;;;;;;5062265;28;8923;-76
2021/10/26 13:49:00;;;;;;;;;4.00;4.00;;;;;;;;5064090;28;8857;-78
2021/10/26 13:51:27;;;;;;;;;4.25;4.25;;;;;;;;5062771;28;8885;-76
2021/10/26 13:53:56;;;;;;;;;2.25;2.25;;;;;;;;5063348;28;8990;-76
2021/10/26 13:56:23;;;;;;;;;4.25;3.75;;;;;;;;5063407;28;8920;-76
2021/10/26 13:58:51;;;;;;;;;3.00;3.00;;;;;;;;5062156;28;8867;-76
2021/10/26 14:01:19;;;;;;;;;3.00;3.00;;;;;;;;5060555;28;8846;-77
2021/10/26 14:03:48;;;;;;;;;4.25;4.25;;;;;;;;5062465;28;8932;-77
2021/10/26 14:06:15;;;;;;;;;6.50;3.00;;;;;;;;5063593;28;8863;-76
2021/10/26 14:08:45;;;;;;;;;3.00;3.00;;;;;;;;5062871;28;8967;-77
2021/10/26 14:11:13;;;;;;;;;2.00;2.00;;;;;;;;5063070;28;8865;-76
2021/10/26 14:13:42;;;;;;;;;2.75;2.75;;;;;;;;5063116;28;8858;-77
2021/10/26 14:16:10;;;;;;;;;3.25;3.25;;;;;;;;5062002;28;9002;-75
2021/10/26 14:18:40;;;;;;;;;3.00;3.00;;;;;;;;5062521;28;9648;-77
2021/10/26 14:21:08;;;;;;;;;3.00;1.25;;;;;;;;5060273;28;8883;-77
2021/10/26 14:23:37;;;;;;;;;3.00;3.00;;;;;;;;5063389;28;8855;-75
2021/10/26 14:26:06;;;;;;;;;3.00;3.00;;;;;;;;5062037;28;8917;-80
2021/10/26 14:28:34;;;;;;;;;3.00;3.00;;;;;;;;5062166;28;8877;-77
2021/10/26 14:31:04;;;;;;;;;2.25;2.25;;;;;;;;5059522;28;8837;-76
2021/10/26 14:33:36;;;;;;;;;3.50;2.00;;;;;;;;5062753;28;8885;-76
2021/10/26 14:36:10;;;;;;;;;3.50;3.50;;;;;;;;5061561;28;8866;-77
2021/10/26 14:38:41;;;;;;;;;3.50;3.50;;;;;;;;5056659;28;8883;-77
2021/10/26 14:41:20;;;;;;;;;3.50;2.50;;;;;;;;5061573;28;8926;-78
2021/10/26 14:54:56;;;;;;;;;3.50;3.50;;;;;;;;5065431;28;8835;-78
2021/10/26 14:57:24;;;;;;;;;3.50;3.50;;;;;;;;5063061;28;8931;-77